Manyberries, Canada
Current Conditions -  °F | °C
As of 9:00 PM on Sunday 23 Nov 2014 (Local Time) from CYXH Reporting Station
Broken Clouds Broken Clouds  
Wind Chill: 23°   Ceiling: 11000
Heat Index: 32°   Visibility: 9mi
Dew Point: 27°   Wind: 13mph
Humidity: 80%   Direction: 210°SSW
Pressure: 29.7"   Gusts: NA
Location:  49.4°N, 110.7°W
Report Text: CYXH 240400Z AUTO 21011KT 9SM BKN110 BKN150 00/M03 A2970 RMK SLP087
Loading
Personal Weather Stations






























Interactive Weather Map New forecast layout! Learn more

10-Day Weather Forecast

Advertisements
Track Severe Weather on mobile